Latest Coastal Weather Observations for Minlaton Airport

IDS60701

Issued at 11:31 pm CST Thursday 28 May 2015 (issued every 10 minutes, with the page automatically refreshed every 10 minutes)

About coastal observations | Map of coastal stations | Coastal observations for SA | Marine services | Other Formats
Station Details ID: 022031 Name: MINLATON AERO Lat: -34.75 Lon: 137.53 Height: 32.0 m
Data from the previous 72 hours. | See also: Recent months at Minlaton Airport
Date/Time
CST
Temp

°C
Wind Pressure Rain
since 9am
mm
Weather Cloud Vis
km
Sea
Height
m
Swell
Dir
 
Speed
knots
Gust
knots
hPa Trend Height
m
Period
s
Dir
28/11:30pm 10.5 SSW 4 6 1021.8 - 1.2 - - - - - - -
28/11:00pm 11.5 WSW 7 8 1021.8 - 1.2 - - - - - - -
28/10:30pm 12.0 WSW 6 7 1021.8 - 1.2 - - - - - - -
28/10:00pm 12.8 WSW 8 9 1021.8 - 1.2 - - - - - - -
28/09:30pm 12.8 WSW 6 7 1021.7 - 1.2 - - - - - - -
28/09:00pm 12.5 W 4 5 1021.3 - 1.2 - - - - - - -
28/08:30pm 12.0 CALM 0 0 1020.9 - 1.2 - - - - - - -
28/08:00pm 11.8 W 1 3 1020.7 - 1.2 - - - - - - -
28/07:30pm 11.5 W 2 3 1020.5 - 1.2 - - - - - - -
28/07:00pm 11.9 SW 4 5 1020.1 - 1.2 - - - - - - -
28/06:30pm 12.2 SSW 8 9 1019.8 - 1.2 - - - - - - -
28/06:00pm 12.8 SW 16 19 1019.3 - 1.2 Recent precip. - - - - - -
28/05:37pm 13.5 WSW 10 19 1019.5 - 0.8 - - - - - - -
28/05:30pm 13.5 WSW 6 7 1019.3 - 0.8 - - - - - - -
28/05:00pm 13.6 WSW 8 10 1019.0 - 0.8 - - - - - - -
28/04:30pm 14.3 WSW 14 18 1018.8 - 0.8 - - - - - - -
28/04:14pm 14.7 W 14 22 1018.5 - 0.8 - - - - - - -
28/04:00pm 15.2 WNW 9 12 1018.4 - 0.8 - - - - - - -
28/03:30pm 14.2 WNW 13 16 1018.2 - 0.8 - - - - - - -
28/03:11pm 14.3 WNW 16 30 1018.3 - 0.6 - - - - - - -
28/03:00pm 16.0 NW 14 20 1018.2 - 0.0 - - - - - - -
28/02:30pm 16.6 NW 18 23 1017.8 - 0.0 - - - - - - -
28/02:00pm 16.9 NW 19 23 1017.7 - 0.0 - - - - - - -
28/01:30pm 16.6 NW 19 24 1017.8 - 0.0 - - - - - - -
28/01:00pm 16.3 WNW 19 23 1018.1 - 0.0 - - - - - - -
28/12:30pm 16.8 WNW 18 21 1018.2 - 0.0 - - - - - - -
28/12:00pm 16.6 WNW 17 21 1018.6 - 0.0 - - - - - - -
28/11:30am 16.6 WNW 19 23 1018.9 - 0.0 - - - - - - -
28/11:00am 16.4 NW 17 21 1019.4 - 0.0 - - - - - - -
28/10:30am 15.5 NW 16 20 1019.3 - 0.0 - - - - - - -
28/10:00am 15.6 NW 17 22 1019.4 - 0.0 - - - - - - -
28/09:30am 15.2 NW 16 20 1019.0 - 0.0 - - - - - - -
28/09:00am 14.8 NNW 14 18 1018.7 - 0.0 - - - - - - -
28/08:30am 14.4 NNW 13 16 1018.6 - 0.0 - - - - - - -
28/08:00am 13.9 NW 12 15 1018.4 - 0.0 - - - - - - -
28/07:30am 13.1 NW 10 13 1018.2 - 0.0 - - - - - - -
28/07:00am 13.3 NW 11 13 1018.3 - 0.0 - - - - - - -
28/06:30am 13.2 NW 11 13 1018.2 - 0.0 - - - - - - -
28/06:00am 12.9 NNW 8 10 1017.8 - 0.0 - - - - - - -
28/05:30am 13.0 NNW 10 11 1017.5 - 0.0 - - - - - - -
28/05:00am 13.6 NW 11 13 1017.5 - 0.0 - - - - - - -
28/04:30am 11.8 N 7 8 1017.6 - 0.0 - - - - - - -
28/04:00am 11.8 N 7 8 1017.5 - 0.0 - - - - - - -
28/03:30am 11.8 N 8 9 1017.6 - 0.0 - - - - - - -
28/03:00am 11.2 N 8 9 1017.9 - 0.0 - - - - - - -
28/02:30am 10.9 N 8 9 1017.6 - 0.0 - - - - - - -
28/02:00am 11.1 N 8 9 1017.7 - 0.0 - - - - - - -
28/01:30am 11.4 N 8 9 1017.9 - 0.0 - - - - - - -
28/01:00am 11.7 N 9 11 1018.2 - 0.0 - - - - - - -
28/12:30am 11.7 N 10 11 1017.8 - 0.0 - - - - - - -
28/12:00am 11.9 N 10 11 1017.9 - 0.0 - - - - - - -
 
Date/Time
CST
Temp

°C
Wind Pressure Rain
since 9am
mm
Weather Cloud Vis
km
Sea
Height
m
Swell
Dir
 
Speed
knots
Gust
knots
hPa Trend Height
m
Period
s
Dir
27/11:30pm 11.9 NNE 9 11 1017.9 - 0.0 - - - - - - -
27/11:00pm 11.5 NNE 9 9 1018.3 - 0.0 - - - - - - -
27/10:30pm 11.5 NNE 8 9 1018.5 - 0.0 - - - - - - -
27/10:00pm 11.8 N 7 8 1018.6 - 0.0 - - - - - - -
27/09:30pm 12.5 NNE 9 10 1018.6 - 0.0 - - - - - - -
27/09:00pm 12.7 NNE 9 11 1018.7 - 0.0 - - - - - - -
27/08:30pm 12.5 NNE 7 8 1018.8 - 0.0 - - - - - - -
27/08:00pm 12.9 NNE 8 8 1018.7 - 0.0 - - - - - - -
27/07:30pm 13.1 N 7 8 1018.7 - 0.0 - - - - - - -
27/07:00pm 13.1 N 8 8 1018.6 - 0.0 - - - - - - -
27/06:30pm 13.2 NNE 8 8 1018.4 - 0.0 - - - - - - -
27/06:00pm 13.2 N 6 7 1018.3 - 0.0 - - - - - - -
27/05:30pm 14.0 N 6 6 1018.3 - 0.0 - - - - - - -
27/05:00pm 15.5 N 6 8 1018.4 - 0.0 - - - - - - -
27/04:30pm 16.2 NNW 8 9 1018.4 - 0.0 - - - - - - -
27/04:00pm 16.6 NNW 8 11 1018.5 - 0.0 - - - - - - -
27/03:30pm 16.1 NNW 9 12 1018.6 - 0.0 - - - - - - -
27/03:00pm 17.4 NW 11 13 1018.7 - 0.0 - - - - - - -
27/02:30pm 17.3 NNW 11 14 1018.7 - 0.0 - - - - - - -
27/02:00pm 17.1 NNW 10 12 1018.6 - 0.0 - - - - - - -
27/01:30pm 16.9 NW 11 15 1019.1 - 0.0 - - - - - - -
27/01:00pm 16.5 NW 13 15 1019.5 - 0.0 - - - - - - -
27/12:30pm 17.1 NNW 12 15 1019.8 - 0.0 - - - - - - -
27/12:00pm 16.4 NNW 13 17 1020.0 - 0.0 - - - - - - -
27/11:30am 16.8 NNW 12 15 1020.4 - 0.0 - - - - - - -
27/11:00am 15.6 NW 14 18 1020.8 - 0.0 - - - - - - -
27/10:30am 15.4 NW 13 16 1021.0 - 0.0 - - - - - - -
27/10:00am 15.2 NW 13 16 1020.8 - 0.0 - - - - - - -
27/09:30am 15.4 NNW 11 14 1020.7 - 0.0 - - - - - - -
27/09:00am 13.9 NNW 7 9 1020.7 - 0.0 - - - - - - -
27/08:30am 12.7 N 9 10 1020.6 - 0.0 - - - - - - -
27/08:00am 11.7 N 8 10 1020.6 - 0.0 - - - - - - -
27/07:30am 9.9 N 8 9 1020.4 - 0.0 - - - - - - -
27/07:00am 10.5 N 11 13 1019.7 - 0.0 - - - - - - -
27/06:30am 10.5 NNE 11 13 1019.6 - 0.0 - - - - - - -
27/06:00am 10.6 N 10 11 1019.4 - 0.0 - - - - - - -
27/05:30am 10.0 N 9 10 1019.6 - 0.0 - - - - - - -
27/05:00am 10.2 NNE 10 11 1019.6 - 0.0 - - - - - - -
27/04:30am 10.5 N 10 11 1019.6 - 0.0 - - - - - - -
27/04:00am 10.1 NE 9 11 1019.6 - 0.0 - - - - - - -
27/03:30am 10.1 N 10 11 1019.8 - 0.0 - - - - - - -
27/03:00am 10.7 N 9 10 1019.8 - 0.0 - - - - - - -
27/02:30am 10.7 N 9 11 1020.0 - 0.0 - - - - - - -
27/02:00am 11.2 N 9 9 1020.1 - 0.0 - - - - - - -
27/01:30am 11.6 N 9 10 1020.2 - 0.0 - - - - - - -
27/01:00am 12.3 N 9 11 1020.3 - 0.0 - - - - - - -
27/12:30am 11.9 N 10 11 1020.6 - 0.0 - - - - - - -
27/12:00am 12.3 NNE 9 11 1020.6 - 0.0 - - - - - - -
 
Date/Time
CST
Temp

°C
Wind Pressure Rain
since 9am
mm
Weather Cloud Vis
km
Sea
Height
m
Swell
Dir
 
Speed
knots
Gust
knots
hPa Trend Height
m
Period
s
Dir
26/11:30pm 12.9 NNE 9 10 1020.6 - 0.0 - - - - - - -
26/11:00pm 12.9 NNE 9 9 1020.7 - 0.0 - - - - - - -
26/10:30pm 12.8 NNE 9 11 1020.7 - 0.0 - - - - - - -
26/10:00pm 13.8 NNE 7 10 1020.9 - 0.0 - - - - - - -
26/09:30pm 14.2 N 9 11 1021.0 - 0.0 - - - - - - -
26/09:00pm 15.1 NNW 10 13 1021.5 - 0.0 - - - - - - -
26/08:30pm 14.7 NW 9 11 1021.7 - 0.0 - - - - - - -
26/08:00pm 14.7 NNW 7 8 1021.5 - 0.0 - - - - - - -
26/07:30pm 14.4 NW 7 9 1021.4 - 0.0 - - - - - - -
26/07:00pm 13.5 N 8 9 1021.4 - 0.0 - - - - - - -
26/06:30pm 14.1 N 7 8 1021.1 - 0.0 - - - - - - -
26/06:00pm 14.6 NW 2 4 1021.0 - 0.0 - - - - - - -
26/05:30pm 15.2 CALM 0 0 1021.0 - 0.0 - - - - - - -
26/05:00pm 15.8 NW 4 5 1021.0 - 0.0 - - - - - - -
26/04:30pm 16.3 NW 6 7 1020.9 - 0.0 - - - - - - -
26/04:00pm 17.8 NW 7 8 1020.7 - 0.0 - - - - - - -
26/03:30pm 19.0 NW 8 9 1020.8 - 0.0 - - - - - - -
26/03:00pm 19.6 NW 7 9 1020.8 - 0.0 - - - - - - -
26/02:30pm 19.4 NW 7 9 1020.9 - 0.0 - - - - - - -
26/02:00pm 19.1 NW 7 10 1021.3 - 0.0 - - - - - - -
26/01:30pm 19.8 NW 8 10 1021.8 - 0.0 - - - - - - -
26/01:00pm 19.4 NW 7 10 1022.2 - 0.0 - - - - - - -
26/12:30pm 18.1 NNW 9 11 1022.7 - 0.0 - - - - - - -
26/12:00pm 19.3 NW 7 10 1023.1 - 0.0 - - - - - - -
26/11:30am 18.3 NW 7 8 1023.7 - 0.0 - - - - - - -
26/11:00am 18.2 NW 5 8 1024.1 - 0.0 - - - - - - -
26/10:30am 18.2 NNW 4 6 1024.4 - 0.0 - - - - - - -
26/10:00am 17.4 N 7 8 1024.4 - 0.0 - - - - - - -
26/09:30am 17.1 N 4 6 1024.5 - 0.0 - - - - - - -
26/09:00am 15.5 NE 4 5 1024.8 - 0.0 - - - - - - -
26/08:30am 13.3 NE 5 6 1025.0 - 0.0 - - - - - - -
26/08:00am 12.4 NNE 7 7 1025.0 - 0.0 - - - - - - -
26/07:30am 11.0 ENE 4 6 1024.6 - 0.0 - - - - - - -
26/07:00am 10.9 SSW 1 3 1024.5 - 0.0 - - - - - - -
26/06:30am 12.6 S 1 6 1024.5 - 0.0 - - - - - - -
26/06:00am 13.3 NNE 7 9 1024.5 - 0.0 - - - - - - -
26/05:30am 13.7 NNE 11 11 1024.4 - 0.0 - - - - - - -
26/05:00am 13.5 NNE 9 10 1024.4 - 0.0 - - - - - - -
26/04:30am 13.2 NNE 7 8 1024.5 - 0.0 - - - - - - -
26/04:00am 13.2 NE 7 8 1024.6 - 0.0 - - - - - - -
26/03:30am 13.4 NNE 7 8 1024.9 - 0.0 - - - - - - -
26/03:00am 13.5 NNE 8 8 1025.0 - 0.0 - - - - - - -
26/02:30am 13.7 NNE 9 10 1025.1 - 0.0 - - - - - - -
26/02:00am 13.5 NE 8 9 1025.3 - 0.0 - - - - - - -
26/01:30am 13.3 ENE 9 11 1025.3 - 0.0 - - - - - - -
26/01:00am 13.3 NE 9 10 1025.7 - 0.0 - - - - - - -
26/12:30am 12.5 ENE 9 10 1025.8 - 0.0 - - - - - - -
26/12:00am 12.3 E 9 10 1025.8 - 0.0 - - - - - - -

Other Formats:

Comma delimited format used in spreadsheet applications
http://www.bom.gov.au/fwo/IDS60701/IDS60701.95659.axf

JavaScript Object Notation format (JSON) in row-major order
http://www.bom.gov.au/fwo/IDS60701/IDS60701.95659.json